Time;durP1;ratioP1;P1;durP2;ratioP2;P2;SDS_P1;SDS_P2;PMS_P1;PMS_P2;Temp;Humidity;BMP_temperature;BMP_pressure;BME280_temperature;BME280_humidity;BME280_pressure;Samples;Min_cycle;Max_cycle;Signal;HPM_P1;HPM_P2
2022/01/06 00:03:48;;;;;;;2.35;0.90;;;;;;;0.61;58.21;95903.19;10289691;28;99383;-77
2022/01/06 00:08:54;;;;;;;3.40;0.93;;;;;;;0.65;58.93;95906.41;10291394;28;96948;-78
2022/01/06 00:14:02;;;;;;;6.88;1.13;;;;;;;0.70;58.77;95906.94;10292007;28;96960;-77
2022/01/06 00:24:29;;;;;;;3.25;1.40;;;;;;;0.65;59.00;95903.84;10288027;28;97130;-78
2022/01/06 00:29:32;;;;;;;7.00;1.20;;;;;;;0.63;59.06;95903.13;10299137;28;97004;-78
2022/01/06 00:34:38;;;;;;;6.37;0.90;;;;;;;0.69;58.86;95910.47;10296964;28;96927;-78
2022/01/06 00:39:41;;;;;;;4.07;0.95;;;;;;;0.71;58.79;95911.19;10294444;28;96751;-78
2022/01/06 00:44:44;;;;;;;3.28;1.00;;;;;;;0.72;58.92;95915.41;10291437;28;96780;-78
2022/01/06 00:49:48;;;;;;;3.55;0.93;;;;;;;0.74;59.47;95912.72;10297710;28;97105;-78
2022/01/06 00:54:51;;;;;;;4.75;0.90;;;;;;;0.73;59.24;95917.03;10295022;28;96990;-78
2022/01/06 00:59:54;;;;;;;2.78;0.70;;;;;;;0.72;59.05;95915.41;10288695;28;96957;-78
2022/01/06 01:04:58;;;;;;;3.03;1.35;;;;;;;0.71;59.47;95924.03;10293998;28;96941;-78
2022/01/06 01:10:01;;;;;;;4.95;1.02;;;;;;;0.65;59.73;95924.41;10296233;28;96660;-78
2022/01/06 01:15:07;;;;;;;3.58;0.95;;;;;;;0.67;60.06;95927.72;10295518;28;96728;-78
2022/01/06 01:20:12;;;;;;;1.98;1.10;;;;;;;0.61;59.81;95943.53;10299430;28;96953;-78
2022/01/06 01:25:15;;;;;;;3.50;1.27;;;;;;;0.58;59.62;95938.56;10295991;28;99846;-77
2022/01/06 01:30:19;;;;;;;3.45;1.10;;;;;;;0.65;60.05;95952.69;10293790;28;96961;-78
2022/01/06 01:35:24;;;;;;;7.13;1.40;;;;;;;0.63;60.02;95962.25;10299024;28;96712;-78
2022/01/06 01:40:27;;;;;;;6.30;1.30;;;;;;;0.54;60.75;95963.63;10295216;28;96903;-77
2022/01/06 01:45:33;;;;;;;4.72;1.00;;;;;;;0.53;60.98;95967.13;10291850;28;96870;-78
2022/01/06 01:50:37;;;;;;;;;;;;;;;0.55;60.66;95974.72;10290178;28;96967;-78
2022/01/06 01:55:39;;;;;;;3.97;1.30;;;;;;;0.46;61.04;95980.44;10296875;28;96847;-78
2022/01/06 02:00:42;;;;;;;4.72;2.13;;;;;;;0.50;61.53;95974.19;10292545;28;96722;-77
2022/01/06 02:05:47;;;;;;;4.03;1.25;;;;;;;0.53;61.74;95981.72;10296453;28;96868;-78
2022/01/06 02:10:49;;;;;;;6.28;1.17;;;;;;;0.49;61.52;95987.97;10294736;28;96874;-78
2022/01/06 02:15:52;;;;;;;4.25;1.15;;;;;;;0.46;61.88;95985.56;10293274;28;96953;-78
2022/01/06 02:20:57;;;;;;;4.35;1.05;;;;;;;0.48;62.03;95992.28;10294829;28;97872;-78
2022/01/06 02:26:00;;;;;;;3.78;1.13;;;;;;;0.43;61.89;95982.28;10295267;28;96724;-78
2022/01/06 02:31:04;;;;;;;4.53;1.00;;;;;;;0.47;62.17;95979.53;10294250;28;96882;-78
2022/01/06 02:36:08;;;;;;;3.13;0.90;;;;;;;0.52;62.43;95980.06;10277973;28;96729;-78
2022/01/06 02:41:12;;;;;;;2.75;1.33;;;;;;;0.52;62.07;95983.47;10285993;28;97878;-78
2022/01/06 02:46:14;;;;;;;4.40;1.35;;;;;;;0.48;62.50;95974.28;10293970;28;97453;-78
2022/01/06 02:51:18;;;;;;;4.00;1.25;;;;;;;0.47;62.51;95982.09;10291330;28;97725;-78
2022/01/06 02:56:21;;;;;;;3.05;1.20;;;;;;;0.48;62.59;95981.16;10295252;28;96834;-78
2022/01/06 03:01:24;;;;;;;4.13;1.27;;;;;;;0.50;62.38;95987.88;10292946;28;96827;-77
2022/01/06 03:06:29;;;;;;;5.50;1.15;;;;;;;0.50;62.54;95997.34;10290105;28;99873;-78
2022/01/06 03:11:33;;;;;;;6.15;1.10;;;;;;;0.52;63.31;95998.06;10296773;28;96975;-78
2022/01/06 03:16:36;;;;;;;3.92;1.15;;;;;;;0.54;62.74;96006.50;10295254;28;97294;-78
2022/01/06 03:21:40;;;;;;;4.53;1.20;;;;;;;0.58;62.79;96000.25;10289337;28;97133;-78
2022/01/06 03:26:43;;;;;;;4.97;1.00;;;;;;;0.58;62.59;96005.38;10295059;28;96773;-78
2022/01/06 03:31:46;;;;;;;4.18;1.35;;;;;;;0.60;62.94;96008.69;10291653;28;96846;-78
2022/01/06 03:36:50;;;;;;;1.90;0.80;;;;;;;0.68;62.48;96010.81;10290765;28;96924;-78
2022/01/06 03:41:53;;;;;;;3.05;1.38;;;;;;;0.69;62.68;96008.16;10293438;28;96916;-78
2022/01/06 03:46:56;;;;;;;4.20;1.13;;;;;;;0.71;62.58;96008.88;10292026;28;96919;-78
2022/01/06 03:52:00;;;;;;;4.35;1.40;;;;;;;0.69;62.37;96009.88;10293282;28;96888;-78
2022/01/06 03:57:04;;;;;;;2.75;1.08;;;;;;;0.68;62.71;96015.97;10290672;28;97025;-78
2022/01/06 04:02:06;;;;;;;3.38;1.27;;;;;;;0.68;63.15;96011.63;10294046;28;97238;-78
2022/01/06 04:07:11;;;;;;;6.80;1.58;;;;;;;0.72;62.94;96019.97;10300258;28;96858;-78
2022/01/06 04:12:14;;;;;;;2.60;1.00;;;;;;;0.71;62.80;96016.59;10297280;28;96901;-78
2022/01/06 04:17:16;;;;;;;3.15;1.23;;;;;;;0.70;62.79;96007.22;10300209;28;96822;-78
2022/01/06 04:22:21;;;;;;;4.25;1.38;;;;;;;0.69;62.69;96010.72;10297983;28;96792;-78
2022/01/06 04:27:24;;;;;;;2.53;0.98;;;;;;;0.69;62.81;96020.16;10287063;28;96724;-78
2022/01/06 04:32:27;;;;;;;4.65;1.05;;;;;;;0.68;62.86;96027.06;10302504;28;96812;-78
2022/01/06 04:37:31;;;;;;;2.53;0.70;;;;;;;0.67;62.92;96020.28;10298174;28;96967;-78
2022/01/06 04:42:34;;;;;;;6.03;1.40;;;;;;;0.52;62.85;96005.78;10294124;28;96921;-78
2022/01/06 04:47:37;;;;;;;4.53;1.48;;;;;;;0.35;63.34;95994.75;10300817;28;96822;-78
2022/01/06 04:52:41;;;;;;;4.00;1.17;;;;;;;0.24;63.61;96008.22;10297533;28;97003;-78
2022/01/06 04:57:44;;;;;;;2.95;1.02;;;;;;;0.10;63.88;96010.78;10295548;28;96716;-78
2022/01/06 05:02:47;;;;;;;1.95;0.93;;;;;;;-0.05;64.07;96007.34;10298819;28;97042;-78
2022/01/06 05:07:51;;;;;;;5.40;1.20;;;;;;;-0.18;64.49;96008.97;10297178;28;97075;-78
2022/01/06 05:12:54;;;;;;;2.88;1.20;;;;;;;-0.33;64.11;96010.69;10295572;28;97037;-78
2022/01/06 05:17:57;;;;;;;2.85;1.10;;;;;;;-0.44;64.24;96020.72;10296500;28;97213;-78
2022/01/06 05:23:01;;;;;;;2.92;1.30;;;;;;;-0.56;64.88;96023.06;10297037;28;96808;-78
2022/01/06 05:28:05;;;;;;;3.00;1.55;;;;;;;-0.61;64.62;96034.50;10295776;28;96812;-78
2022/01/06 05:33:07;;;;;;;5.90;1.10;;;;;;;-0.68;65.04;96035.72;10279905;28;97101;-78
2022/01/06 05:38:12;;;;;;;1.55;0.90;;;;;;;-0.85;65.58;96047.72;10296749;28;96913;-78
2022/01/06 05:43:15;;;;;;;6.75;1.30;;;;;;;-0.91;65.84;96048.03;10296113;28;97146;-78
2022/01/06 05:48:18;;;;;;;1.98;1.08;;;;;;;-1.03;65.79;96053.84;10295012;28;96888;-78
2022/01/06 05:53:23;;;;;;;2.17;1.38;;;;;;;-1.21;66.30;96061.59;10297717;28;97090;-78
2022/01/06 05:58:26;;;;;;;;;;;;;;;-1.23;66.68;96058.28;10295599;28;96697;-78
2022/01/06 06:03:29;;;;;;;4.43;1.27;;;;;;;-1.22;66.36;96066.78;10290997;28;96978;-78
2022/01/06 06:08:33;;;;;;;1.83;0.90;;;;;;;-1.20;66.27;96067.56;10299073;28;96895;-78
2022/01/06 06:13:36;;;;;;;5.68;1.20;;;;;;;-1.16;65.92;96063.91;10294568;28;96934;-78
2022/01/06 06:18:39;;;;;;;4.65;1.20;;;;;;;-1.12;65.95;96061.13;10291398;28;96813;-78
2022/01/06 06:23:44;;;;;;;3.67;1.63;;;;;;;-1.11;65.63;96065.31;10295002;28;96739;-78
2022/01/06 06:28:48;;;;;;;3.63;1.30;;;;;;;-1.08;66.31;96078.00;10289028;28;99425;-78
2022/01/06 06:33:51;;;;;;;3.43;1.33;;;;;;;-1.10;66.00;96082.38;10292659;28;96892;-78
2022/01/06 06:38:55;;;;;;;5.28;1.05;;;;;;;-1.21;66.29;96082.09;10295420;28;96860;-78
2022/01/06 06:43:58;;;;;;;3.40;1.30;;;;;;;-1.27;66.83;96097.81;10289733;28;97515;-78
2022/01/06 06:49:01;;;;;;;4.53;1.42;;;;;;;-1.43;66.77;96102.03;10287811;28;96844;-77
2022/01/06 06:54:06;;;;;;;4.15;1.17;;;;;;;-1.42;66.87;96101.16;10286499;28;96709;-78
2022/01/06 06:59:09;;;;;;;3.47;1.17;;;;;;;-1.39;66.13;96099.25;10282155;28;97043;-78
2022/01/06 07:04:12;;;;;;;3.40;1.40;;;;;;;-1.38;65.89;96100.88;10289016;28;97950;-78
2022/01/06 07:09:36;;;;;;;3.88;1.10;;;;;;;-1.39;66.00;96098.44;10289882;28;97198;-78
2022/01/06 07:14:39;;;;;;;2.80;1.17;;;;;;;-1.37;66.45;96109.44;10295427;28;97213;-78
2022/01/06 07:19:43;;;;;;;3.90;1.40;;;;;;;-1.51;67.16;96110.94;10292776;28;96762;-78
2022/01/06 07:24:47;;;;;;;2.55;1.30;;;;;;;-1.63;66.32;96116.69;10290248;28;96692;-78
2022/01/06 07:29:50;;;;;;;3.30;1.23;;;;;;;-1.59;66.93;96123.31;10294449;28;96878;-78
2022/01/06 07:34:53;;;;;;;4.07;1.85;;;;;;;-1.57;66.38;96126.63;10292906;28;96905;-78
2022/01/06 07:39:57;;;;;;;1.35;0.98;;;;;;;-1.53;66.87;96128.13;10290092;28;97072;-78
2022/01/06 07:45:00;;;;;;;2.75;1.52;;;;;;;-1.46;65.96;96124.34;10291883;28;96965;-78
2022/01/06 07:50:04;;;;;;;4.78;1.42;;;;;;;-1.34;65.75;96122.91;10291307;28;96823;-78
2022/01/06 07:55:08;;;;;;;4.55;1.45;;;;;;;-1.22;66.10;96138.56;10292491;28;97291;-78
2022/01/06 08:00:12;;;;;;;5.33;1.43;;;;;;;-1.10;65.07;96136.22;10290341;28;96846;-78
2022/01/06 08:05:15;;;;;;;4.60;1.35;;;;;;;-0.88;65.03;96140.22;10293396;28;96906;-78
2022/01/06 08:10:20;;;;;;;4.22;1.13;;;;;;;-0.74;64.74;96148.00;10291212;28;96836;-78
2022/01/06 08:15:23;;;;;;;1.65;0.82;;;;;;;-0.60;64.56;96154.97;10289129;28;97856;-78
2022/01/06 08:20:25;;;;;;;2.22;1.00;;;;;;;-0.47;63.77;96165.44;10294726;28;96825;-78
2022/01/06 08:25:30;;;;;;;2.85;1.00;;;;;;;-0.41;64.12;96165.09;10291682;28;96884;-78
2022/01/06 08:30:33;;;;;;;3.33;1.10;;;;;;;-0.33;64.15;96169.81;10287697;28;96941;-78
2022/01/06 08:35:36;;;;;;;3.38;1.02;;;;;;;-0.24;63.33;96171.06;10286108;28;96894;-78
2022/01/06 08:40:40;;;;;;;3.75;1.15;;;;;;;-0.19;63.29;96169.06;10291032;28;96867;-78
2022/01/06 08:45:43;;;;;;;3.47;0.90;;;;;;;-0.11;62.78;96163.50;10288292;28;96690;-78
2022/01/06 08:50:49;;;;;;;2.75;1.55;;;;;;;-0.04;62.78;96168.25;10297230;28;96717;-78
2022/01/06 08:55:53;;;;;;;2.97;1.17;;;;;;;0.01;62.65;96165.41;10297814;28;96925;-78
2022/01/06 09:00:56;;;;;;;2.40;1.10;;;;;;;0.09;62.27;96165.81;10296112;28;96877;-78
2022/01/06 09:06:00;;;;;;;3.35;1.30;;;;;;;0.19;62.35;96154.09;10296885;28;96716;-78
2022/01/06 09:11:05;;;;;;;3.85;1.30;;;;;;;0.24;62.41;96164.13;10300212;28;97046;-78
2022/01/06 09:16:09;;;;;;;4.03;1.40;;;;;;;0.24;62.82;96166.69;10297642;28;96895;-78
2022/01/06 09:21:12;;;;;;;4.65;1.90;;;;;;;0.24;63.14;96164.13;10295012;28;96746;-78
2022/01/06 09:26:16;;;;;;;6.03;1.70;;;;;;;0.20;63.58;96165.19;10297206;28;97011;-78
2022/01/06 09:31:19;;;;;;;4.55;2.05;;;;;;;0.24;63.74;96166.69;10296824;28;97072;-78
2022/01/06 09:36:22;;;;;;;4.50;1.80;;;;;;;0.29;63.98;96174.97;10293630;28;97092;-78
2022/01/06 09:41:27;;;;;;;3.50;1.85;;;;;;;0.34;63.91;96170.41;10298592;28;96754;-78
2022/01/06 09:46:31;;;;;;;3.40;1.48;;;;;;;0.42;63.90;96160.50;10296019;28;96988;-78
2022/01/06 09:51:34;;;;;;;5.57;2.00;;;;;;;0.50;63.57;96161.84;10291370;28;97035;-78
2022/01/06 09:56:39;;;;;;;6.45;1.90;;;;;;;0.55;64.43;96165.78;10298916;28;96807;-78
2022/01/06 10:01:42;;;;;;;9.55;2.53;;;;;;;0.55;64.69;96164.94;10295234;28;96899;-78
2022/01/06 10:06:58;;;;;;;5.43;2.10;;;;;;;0.54;64.88;96145.31;10292258;28;96731;-78
2022/01/06 10:12:07;;;;;;;7.75;1.90;;;;;;;0.66;64.98;96162.59;10295109;28;96669;-78
2022/01/06 10:17:11;;;;;;;4.47;2.20;;;;;;;0.70;65.05;96168.38;10296776;28;96913;-79
2022/01/06 10:22:17;;;;;;;5.60;2.03;;;;;;;0.79;65.17;96168.69;10294539;28;96888;-78
2022/01/06 10:27:22;;;;;;;5.05;1.92;;;;;;;0.92;64.39;96158.50;10292661;28;96881;-78
2022/01/06 10:32:25;;;;;;;4.40;2.27;;;;;;;1.01;65.17;96166.59;10296800;28;97475;-78
2022/01/06 10:37:33;;;;;;;5.63;2.00;;;;;;;1.06;65.52;96167.16;10295857;28;96981;-78
2022/01/06 10:42:39;;;;;;;8.10;2.50;;;;;;;1.13;65.21;96165.84;10290447;28;96940;-78
2022/01/06 10:47:46;;;;;;;4.47;2.17;;;;;;;1.23;65.57;96161.81;10296252;28;97134;-79
2022/01/06 10:52:54;;;;;;;6.80;1.75;;;;;;;1.26;65.67;96150.50;10294898;28;97511;-79
2022/01/06 10:58:01;;;;;;;6.32;2.15;;;;;;;1.31;65.15;96149.31;10293084;28;96812;-78
2022/01/06 11:03:09;;;;;;;3.83;1.85;;;;;;;1.31;65.71;96153.63;10292274;28;96699;-78
2022/01/06 11:08:13;;;;;;;5.93;1.73;;;;;;;1.35;65.48;96149.97;10295317;28;96863;-78
2022/01/06 11:13:18;;;;;;;7.13;2.28;;;;;;;1.38;66.10;96144.59;10292446;28;96949;-78
2022/01/06 11:18:21;;;;;;;5.30;2.08;;;;;;;1.47;65.71;96154.34;10291279;28;98063;-78
2022/01/06 11:23:25;;;;;;;5.50;2.42;;;;;;;1.63;65.14;96154.22;10297377;28;96811;-78
2022/01/06 11:28:31;;;;;;;3.88;1.90;;;;;;;1.71;64.91;96157.16;10293674;28;100113;-78
2022/01/06 11:33:41;;;;;;;5.90;2.10;;;;;;;1.77;64.86;96155.94;10288567;28;97097;-78
2022/01/06 11:38:47;;;;;;;2.83;1.75;;;;;;;1.76;65.37;96149.13;10295512;28;96709;-79
2022/01/06 11:43:51;;;;;;;4.57;2.00;;;;;;;1.80;65.41;96155.75;10294500;28;97355;-78
2022/01/06 11:48:56;;;;;;;2.60;1.70;;;;;;;1.85;65.48;96158.03;10290896;28;97172;-79
2022/01/06 11:54:00;;;;;;;3.90;1.97;;;;;;;1.88;65.02;96160.41;10293313;28;96705;-78
2022/01/06 11:59:08;;;;;;;3.63;1.70;;;;;;;1.93;65.02;96159.19;10290116;28;97620;-79
2022/01/06 12:04:15;;;;;;;4.95;1.80;;;;;;;1.93;65.04;96156.63;10292156;28;96860;-78
2022/01/06 12:09:20;;;;;;;3.83;1.98;;;;;;;1.95;65.03;96151.38;10290324;28;96823;-79
2022/01/06 12:14:28;;;;;;;3.47;2.03;;;;;;;2.08;65.35;96149.69;10294429;28;96915;-79
2022/01/06 12:19:31;;;;;;;4.72;1.85;;;;;;;2.13;65.00;96152.81;10292136;28;97055;-79
2022/01/06 12:24:34;;;;;;;5.50;1.80;;;;;;;2.28;64.99;96140.66;10290693;28;96960;-78
2022/01/06 12:29:39;;;;;;;2.95;1.80;;;;;;;2.37;64.58;96146.16;10301868;28;96869;-79
2022/01/06 12:34:43;;;;;;;4.28;1.70;;;;;;;2.40;64.92;96145.97;10299555;28;96655;-79
2022/01/06 12:39:47;;;;;;;5.83;1.83;;;;;;;2.50;64.67;96134.13;10295568;28;96735;-79
2022/01/06 12:44:52;;;;;;;3.70;1.95;;;;;;;2.65;65.11;96137.44;10299484;28;96975;-79
2022/01/06 12:49:59;;;;;;;3.95;1.70;;;;;;;2.75;64.24;96133.31;10296732;28;99740;-79
2022/01/06 12:55:02;;;;;;;6.13;1.55;;;;;;;2.69;63.79;96128.56;10297709;28;96768;-79
2022/01/06 13:00:12;;;;;;;5.03;1.67;;;;;;;2.75;63.84;96127.34;10296350;28;96753;-79
2022/01/06 13:05:15;;;;;;;3.45;1.40;;;;;;;2.79;63.49;96123.59;10299113;28;96883;-79
2022/01/06 13:10:18;;;;;;;4.20;1.60;;;;;;;2.86;63.41;96136.00;10297741;28;96837;-79
2022/01/06 13:15:32;;;;;;;6.30;2.17;;;;;;;2.94;62.96;96132.91;10294569;28;96678;-79
2022/01/06 13:20:39;;;;;;;2.65;1.85;;;;;;;2.90;63.33;96130.66;10292661;28;96878;-78
2022/01/06 13:25:42;;;;;;;3.25;1.48;;;;;;;2.92;62.70;96145.09;10297001;28;97009;-79
2022/01/06 13:30:48;;;;;;;4.60;1.73;;;;;;;2.93;62.74;96143.31;10294107;28;96772;-79
2022/01/06 13:35:53;;;;;;;2.90;1.45;;;;;;;2.82;62.38;96150.06;10297022;28;96829;-79
2022/01/06 13:40:59;;;;;;;3.50;1.70;;;;;;;2.91;62.17;96147.78;10295254;28;97000;-79
2022/01/06 13:46:20;;;;;;;4.60;1.70;;;;;;;2.94;61.75;96150.97;10296014;28;96758;-79
2022/01/06 13:51:23;;;;;;;6.28;1.98;;;;;;;2.93;62.29;96157.06;10278803;28;96896;-79
2022/01/06 13:56:30;;;;;;;6.47;2.20;;;;;;;3.04;61.83;96164.91;10297867;28;96682;-79
2022/01/06 14:01:35;;;;;;;7.55;2.03;;;;;;;3.05;61.71;96158.84;10296116;28;97520;-79
2022/01/06 14:06:38;;;;;;;4.80;1.70;;;;;;;2.96;61.94;96162.03;10292170;28;96729;-79
2022/01/06 14:11:41;;;;;;;4.13;1.85;;;;;;;2.92;62.75;96164.91;10298120;28;96761;-78
2022/01/06 14:16:45;;;;;;;3.63;1.67;;;;;;;2.84;61.98;96158.50;10295927;28;96758;-79
2022/01/06 14:21:48;;;;;;;3.70;1.70;;;;;;;2.84;61.82;96173.16;10292613;28;96943;-78
2022/01/06 14:26:51;;;;;;;3.22;2.00;;;;;;;2.87;61.87;96178.97;10296038;28;96967;-79
2022/01/06 14:31:56;;;;;;;4.63;1.80;;;;;;;2.83;62.04;96176.69;10293880;28;96988;-79
2022/01/06 14:36:59;;;;;;;4.78;1.48;;;;;;;2.78;62.13;96189.06;10294050;28;96810;-79
2022/01/06 14:42:02;;;;;;;3.63;1.95;;;;;;;2.81;62.21;96187.09;10294040;28;96753;-79
2022/01/06 14:47:06;;;;;;;3.55;2.05;;;;;;;2.86;61.84;96194.53;10295973;28;96754;-79
2022/01/06 14:52:09;;;;;;;3.43;2.00;;;;;;;2.83;62.12;96207.63;10294659;28;96857;-79
2022/01/06 14:57:12;;;;;;;5.45;1.70;;;;;;;2.79;61.60;96206.16;10291705;28;97293;-79
2022/01/06 15:02:16;;;;;;;2.63;1.60;;;;;;;2.80;62.75;96203.50;10294693;28;99621;-79
2022/01/06 15:07:19;;;;;;;2.88;1.60;;;;;;;2.74;62.45;96197.94;10294777;28;97341;-79
2022/01/06 15:12:22;;;;;;;2.72;1.52;;;;;;;2.64;62.25;96200.28;10291050;28;96716;-79
2022/01/06 15:17:26;;;;;;;4.50;2.10;;;;;;;2.53;61.93;96210.44;10296199;28;96731;-78
2022/01/06 15:22:29;;;;;;;4.03;1.80;;;;;;;2.39;62.32;96208.75;10292443;28;96912;-79
2022/01/06 15:27:32;;;;;;;4.18;1.80;;;;;;;2.32;62.67;96200.59;10289372;28;96915;-79
2022/01/06 15:32:37;;;;;;;3.20;1.75;;;;;;;2.24;62.51;96216.53;10292733;28;96872;-78
2022/01/06 15:37:40;;;;;;;2.63;1.60;;;;;;;2.15;62.35;96216.28;10292829;28;99598;-79
2022/01/06 15:42:43;;;;;;;4.25;1.98;;;;;;;2.13;62.69;96229.28;10290149;28;96737;-78
2022/01/06 15:47:53;;;;;;;4.25;1.80;;;;;;;2.06;62.52;96230.56;10294882;28;96861;-79
2022/01/06 15:52:56;;;;;;;4.72;1.83;;;;;;;1.98;62.79;96222.53;10292325;28;97722;-79
2022/01/06 15:57:59;;;;;;;3.38;1.80;;;;;;;1.88;62.48;96225.66;10293220;28;98946;-79
2022/01/06 16:08:25;;;;;;;6.60;2.42;;;;;;;1.71;62.63;96238.72;10301788;28;96644;-79
2022/01/06 16:13:28;;;;;;;3.28;1.85;;;;;;;1.55;63.53;96242.22;10298174;28;101495;-78
2022/01/06 16:18:33;;;;;;;3.72;1.60;;;;;;;1.41;63.71;96247.38;10295497;28;96988;-79
2022/01/06 16:23:36;;;;;;;3.87;1.90;;;;;;;1.34;63.35;96253.81;10293661;28;96987;-79
2022/01/06 16:28:38;;;;;;;4.78;2.15;;;;;;;1.25;63.91;96250.03;10299233;28;96815;-78
2022/01/06 16:33:45;;;;;;;3.97;2.35;;;;;;;1.17;63.77;96260.78;10288131;28;97974;-78
2022/01/06 16:38:47;;;;;;;7.25;2.47;;;;;;;1.08;64.44;96256.16;10292411;28;96725;-78
2022/01/06 16:43:50;;;;;;;5.88;2.00;;;;;;;0.94;64.33;96258.72;10293887;28;96953;-79
2022/01/06 16:48:54;;;;;;;5.50;1.92;;;;;;;0.78;65.06;96269.88;10296195;28;101272;-78
2022/01/06 16:53:57;;;;;;;4.05;2.20;;;;;;;0.49;65.48;96273.25;10299484;28;96749;-78
2022/01/06 16:59:00;;;;;;;4.35;2.30;;;;;;;0.28;65.97;96285.53;10297311;28;99596;-78
2022/01/06 17:04:05;;;;;;;3.58;1.83;;;;;;;0.17;65.95;96284.38;10295407;28;97639;-78
2022/01/06 17:09:08;;;;;;;2.80;1.90;;;;;;;0.06;66.05;96299.53;10278522;28;96851;-78
2022/01/06 17:14:11;;;;;;;5.53;2.60;;;;;;;-0.04;66.48;96295.78;10299531;28;96812;-79
2022/01/06 17:19:16;;;;;;;3.58;2.13;;;;;;;-0.21;66.83;96309.53;10296839;28;97112;-78
2022/01/06 17:24:21;;;;;;;4.88;2.90;;;;;;;-0.39;67.58;96314.72;10294423;28;98124;-78
2022/01/06 17:29:24;;;;;;;5.35;2.85;;;;;;;-0.38;67.72;96313.78;10298916;28;96842;-78
2022/01/06 17:34:48;;;;;;;6.82;3.80;;;;;;;-0.46;68.10;96307.41;10296654;28;96820;-78
2022/01/06 17:39:51;;;;;;;10.02;4.35;;;;;;;-0.44;67.83;96309.00;10295031;28;96990;-78
2022/01/06 17:44:54;;;;;;;7.68;4.40;;;;;;;-0.36;67.67;96306.84;10296951;28;97150;-78
2022/01/06 17:49:58;;;;;;;9.50;4.40;;;;;;;-0.34;67.96;96307.63;10295701;28;96908;-78
2022/01/06 17:55:02;;;;;;;9.87;5.23;;;;;;;-0.42;67.94;96302.03;10293922;28;96859;-78
2022/01/06 18:00:07;;;;;;;7.45;4.85;;;;;;;-0.40;68.07;96313.06;10294317;28;96721;-78
2022/01/06 18:05:15;;;;;;;12.38;5.68;;;;;;;-0.47;67.76;96327.09;10294893;28;96998;-79
2022/01/06 18:15:39;;;;;;;17.33;11.45;;;;;;;-0.67;67.89;96327.28;10290948;28;97003;-78
2022/01/06 18:20:43;;;;;;;20.10;12.80;;;;;;;-0.72;68.00;96336.03;10296397;28;96712;-78
2022/01/06 18:25:46;;;;;;;11.15;6.65;;;;;;;-0.71;68.15;96350.50;10293932;28;96744;-78
2022/01/06 18:30:49;;;;;;;5.82;2.90;;;;;;;-0.68;67.60;96343.56;10293167;28;97123;-78
2022/01/06 18:35:53;;;;;;;11.38;7.13;;;;;;;-0.65;67.89;96351.97;10295452;28;96906;-78
2022/01/06 18:40:56;;;;;;;8.48;5.68;;;;;;;-0.69;68.21;96360.69;10294267;28;97585;-79
2022/01/06 18:45:59;;;;;;;10.55;6.32;;;;;;;-0.75;68.29;96351.59;10292426;28;96695;-79
2022/01/06 18:51:05;;;;;;;4.88;3.20;;;;;;;-0.77;67.74;96355.13;10294953;28;96680;-78
2022/01/06 18:56:10;;;;;;;6.10;4.07;;;;;;;-0.80;68.32;96356.09;10294471;28;97547;-78
2022/01/06 19:01:14;;;;;;;8.30;4.93;;;;;;;-0.78;68.17;96356.84;10293009;28;97008;-78
2022/01/06 19:06:18;;;;;;;8.47;5.53;;;;;;;-0.76;68.28;96361.91;10291421;28;96933;-79
2022/01/06 19:11:22;;;;;;;7.47;4.60;;;;;;;-0.69;68.16;96359.88;10296928;28;96820;-79
2022/01/06 19:16:25;;;;;;;6.20;4.50;;;;;;;-0.73;68.23;96354.06;10292998;28;96822;-78
2022/01/06 19:21:29;;;;;;;7.50;4.55;;;;;;;-0.79;68.22;96360.34;10290142;28;96771;-78
2022/01/06 19:26:32;;;;;;;4.45;2.30;;;;;;;-0.84;68.22;96358.88;10295824;28;96883;-78
2022/01/06 19:31:35;;;;;;;4.28;2.08;;;;;;;-0.71;68.05;96358.22;10294319;28;97125;-79
2022/01/06 19:36:39;;;;;;;3.30;2.25;;;;;;;-0.70;67.97;96359.06;10287270;28;96995;-78
2022/01/06 19:41:42;;;;;;;4.20;2.35;;;;;;;-0.66;67.18;96363.13;10295214;28;96752;-79
2022/01/06 19:46:45;;;;;;;5.00;2.38;;;;;;;-0.71;67.85;96358.22;10291925;28;97192;-78
2022/01/06 19:51:49;;;;;;;5.55;3.05;;;;;;;-0.80;68.04;96370.69;10289039;28;96981;-78
2022/01/06 19:57:12;;;;;;;7.97;4.05;;;;;;;-0.86;68.17;96378.66;10275546;28;96884;-78
2022/01/06 20:02:15;;;;;;;5.25;2.88;;;;;;;-0.89;68.08;96382.22;10292505;28;96966;-79
2022/01/06 20:07:20;;;;;;;5.65;3.60;;;;;;;-0.94;68.08;96384.16;10293064;28;96925;-78
2022/01/06 20:12:23;;;;;;;5.40;2.60;;;;;;;-0.95;67.63;96385.06;10289492;28;96669;-78
2022/01/06 20:17:29;;;;;;;6.05;3.55;;;;;;;-1.03;67.78;96379.47;10293842;28;96751;-78
2022/01/06 20:22:33;;;;;;;7.38;3.95;;;;;;;-1.05;67.72;96381.28;10291662;28;99763;-78
2022/01/06 20:27:36;;;;;;;4.47;2.35;;;;;;;-1.13;68.30;96377.34;10286500;28;96941;-78
2022/01/06 20:32:39;;;;;;;3.63;2.28;;;;;;;-1.22;68.26;96388.03;10294291;28;96917;-78
2022/01/06 20:37:43;;;;;;;3.22;1.58;;;;;;;-1.30;67.63;96387.56;10291260;28;96773;-79
2022/01/06 20:42:46;;;;;;;4.95;2.22;;;;;;;-1.40;67.76;96373.50;10287914;28;96700;-78
2022/01/06 20:47:55;;;;;;;3.03;1.75;;;;;;;-1.41;68.19;96379.53;10300833;28;96827;-78
2022/01/06 20:52:59;;;;;;;3.90;2.03;;;;;;;-1.38;67.76;96376.84;10297757;28;96944;-79
2022/01/06 20:58:02;;;;;;;4.05;2.22;;;;;;;-1.44;67.48;96384.81;10297039;28;96761;-78
2022/01/06 21:03:05;;;;;;;3.25;1.83;;;;;;;-1.54;68.36;96390.34;10297175;28;97081;-78
2022/01/06 21:08:11;;;;;;;3.60;2.38;;;;;;;-1.67;68.98;96391.81;10296519;28;96940;-78
2022/01/06 21:13:14;;;;;;;4.57;2.47;;;;;;;-1.76;68.44;96405.03;10296578;28;97074;-78
2022/01/06 21:18:17;;;;;;;5.13;3.10;;;;;;;-1.86;69.04;96397.75;10294011;28;97046;-78
2022/01/06 21:23:21;;;;;;;4.45;2.40;;;;;;;-1.90;69.58;96396.25;10294634;28;97432;-78
2022/01/06 21:28:24;;;;;;;2.83;1.92;;;;;;;-1.93;68.95;96396.38;10289065;28;97853;-78
2022/01/06 21:33:27;;;;;;;8.40;5.35;;;;;;;-1.96;69.91;96401.63;10292595;28;96960;-79
2022/01/06 21:38:32;;;;;;;6.25;3.20;;;;;;;-1.90;70.43;96395.38;10298703;28;97216;-78
2022/01/06 21:43:34;;;;;;;16.35;9.65;;;;;;;-1.76;69.37;96397.34;10296091;28;96972;-79
2022/01/06 21:48:37;;;;;;;6.38;3.40;;;;;;;-1.69;70.21;96411.53;10291559;28;96948;-79
2022/01/06 21:53:42;;;;;;;3.35;1.70;;;;;;;-1.59;69.69;96409.41;10298902;28;96839;-78
2022/01/06 21:58:44;;;;;;;2.85;1.90;;;;;;;-1.43;69.78;96410.38;10294741;28;96801;-79
2022/01/06 22:03:47;;;;;;;5.15;1.88;;;;;;;-1.28;69.92;96401.13;10293628;28;97168;-79
2022/01/06 22:08:52;;;;;;;2.88;1.75;;;;;;;-1.08;69.53;96400.22;10294764;28;96859;-79
2022/01/06 22:13:55;;;;;;;4.47;3.15;;;;;;;-1.00;69.48;96392.16;10294724;28;99972;-79
2022/01/06 22:18:58;;;;;;;8.70;5.30;;;;;;;-0.93;70.09;96399.50;10293415;28;97052;-79
2022/01/06 22:24:02;;;;;;;13.50;7.43;;;;;;;-0.87;69.26;96397.50;10293951;28;96825;-79
2022/01/06 22:29:05;;;;;;;12.00;6.28;;;;;;;-0.82;69.02;96401.53;10296018;28;96974;-79
2022/01/06 22:34:08;;;;;;;9.35;5.90;;;;;;;-0.78;68.91;96395.34;10293890;28;96727;-79
2022/01/06 22:39:12;;;;;;;9.45;5.90;;;;;;;-0.78;69.94;96402.22;10291817;28;96909;-79
2022/01/06 22:44:15;;;;;;;14.43;7.93;;;;;;;-0.75;69.85;96402.88;10298898;28;97259;-79
2022/01/06 22:49:19;;;;;;;11.57;6.88;;;;;;;-0.97;69.95;96404.81;10293665;28;96901;-79
2022/01/06 22:54:26;;;;;;;12.98;6.60;;;;;;;-0.92;70.43;96403.69;10290883;28;96819;-79
2022/01/06 22:59:32;;;;;;;9.20;5.60;;;;;;;-0.88;70.30;96406.94;10295131;28;97013;-79
2022/01/06 23:04:37;;;;;;;10.07;6.13;;;;;;;-0.84;69.71;96408.47;10293219;28;96899;-79
2022/01/06 23:09:42;;;;;;;9.02;5.82;;;;;;;-0.81;70.04;96405.72;10288896;28;97180;-79
2022/01/06 23:14:45;;;;;;;8.77;5.25;;;;;;;-0.72;69.70;96418.13;10294951;28;96756;-79
2022/01/06 23:19:48;;;;;;;9.00;5.40;;;;;;;-0.65;69.43;96415.25;10292485;28;97009;-79
2022/01/06 23:24:52;;;;;;;8.63;5.60;;;;;;;-0.80;70.25;96412.53;10291284;28;97216;-80
2022/01/06 23:29:56;;;;;;;9.10;5.60;;;;;;;-0.90;70.16;96396.75;10293688;28;97014;-80
2022/01/06 23:34:59;;;;;;;8.63;5.05;;;;;;;-0.91;69.45;96400.25;10292231;28;97402;-78
2022/01/06 23:40:05;;;;;;;9.55;5.50;;;;;;;-0.96;69.83;96406.47;10291257;28;98131;-80
2022/01/06 23:45:09;;;;;;;10.95;5.85;;;;;;;-1.09;69.92;96409.63;10275118;28;96717;-79
2022/01/06 23:50:15;;;;;;;8.60;5.07;;;;;;;-1.20;69.96;96401.63;10291830;28;96785;-80
2022/01/06 23:55:21;;;;;;;8.50;5.63;;;;;;;-1.29;69.77;96408.00;10292498;28;96935;-80
